Time;durP1;ratioP1;P1;durP2;ratioP2;P2;SDS_P1;SDS_P2;PMS_P1;PMS_P2;Temp;Humidity;BMP_temperature;BMP_pressure;BME280_temperature;BME280_humidity;BME280_pressure;Samples;Min_cycle;Max_cycle;Signal;HPM_P1;HPM_P2
2023/11/11 00:00:02;;;;;;;9.80;5.60;;;;;;;6.25;100.00;99419.09;7398744;19;20431;-47
2023/11/11 00:02:32;;;;;;;12.27;5.43;;;;;;;6.30;100.00;99443.19;7374403;19;20424;-47
2023/11/11 00:05:01;;;;;;;11.27;5.07;;;;;;;6.26;100.00;99457.53;7396530;19;20812;-46
2023/11/11 00:07:31;;;;;;;12.40;4.97;;;;;;;6.21;100.00;99465.06;7373357;19;20832;-52
2023/11/11 00:10:03;;;;;;;28.83;11.60;;;;;;;6.29;100.00;99485.84;7397025;19;20432;-47
2023/11/11 00:12:34;;;;;;;76.30;25.03;;;;;;;6.30;100.00;99492.72;7376313;19;20438;-48
2023/11/11 00:15:04;;;;;;;16.27;7.13;;;;;;;6.36;100.00;99507.44;7397149;19;20860;-51
2023/11/11 00:17:34;;;;;;;23.37;9.77;;;;;;;6.37;100.00;99505.78;7375284;19;20435;-47
2023/11/11 00:20:07;;;;;;;9.90;5.33;;;;;;;6.35;100.00;99508.25;7398105;19;20420;-51
2023/11/11 00:22:37;;;;;;;14.00;6.63;;;;;;;6.42;100.00;99514.50;7375342;19;20531;-52
2023/11/11 00:25:11;;;;;;;10.77;5.93;;;;;;;6.37;100.00;99510.91;7395517;19;20455;-49
2023/11/11 00:27:42;;;;;;;17.47;8.47;;;;;;;6.35;100.00;99529.66;7375538;19;21350;-47
2023/11/11 00:30:15;;;;;;;17.73;6.00;;;;;;;6.33;100.00;99526.16;7374118;19;20403;-46
2023/11/11 00:32:50;;;;;;;18.27;8.13;;;;;;;6.38;100.00;99528.91;7394598;19;20946;-47
2023/11/11 00:35:21;;;;;;;27.13;9.27;;;;;;;6.39;100.00;99534.88;7373299;19;20518;-48
2023/11/11 00:37:50;;;;;;;17.53;8.93;;;;;;;6.39;100.00;99545.13;7396749;19;20425;-46
2023/11/11 00:40:23;;;;;;;52.03;18.90;;;;;;;6.40;100.00;99552.03;7372203;19;20396;-46
2023/11/11 00:42:53;;;;;;;9.80;5.70;;;;;;;6.42;100.00;99550.38;7394675;19;20432;-46
2023/11/11 00:45:23;;;;;;;12.00;6.30;;;;;;;6.47;100.00;99554.00;7372491;19;20435;-45
2023/11/11 00:47:52;;;;;;;18.33;8.50;;;;;;;6.48;100.00;99555.75;7395821;19;20410;-47
2023/11/11 00:50:22;;;;;;;17.90;8.33;;;;;;;6.51;100.00;99549.88;7371342;19;20400;-45
2023/11/11 00:52:52;;;;;;;17.37;7.90;;;;;;;6.59;100.00;99553.59;7396526;19;20407;-50
2023/11/11 00:55:24;;;;;;;27.70;12.40;;;;;;;6.65;100.00;99552.97;7371407;19;20447;-49
2023/11/11 00:57:54;;;;;;;13.10;6.90;;;;;;;6.64;100.00;99546.06;7394699;19;20399;-49
2023/11/11 01:00:23;;;;;;;15.93;6.03;;;;;;;6.56;100.00;99533.84;7370814;19;20498;-45
2023/11/11 01:02:54;;;;;;;13.40;6.80;;;;;;;6.55;100.00;99532.09;7394440;19;20408;-49
2023/11/11 01:05:25;;;;;;;9.73;5.27;;;;;;;6.41;100.00;99513.63;7370125;19;20439;-48
2023/11/11 01:07:55;;;;;;;10.23;5.63;;;;;;;6.45;100.00;99512.06;7394639;19;20412;-46
2023/11/11 01:10:34;;;;;;;15.30;6.30;;;;;;;6.48;100.00;99500.22;7371304;19;20385;-49
2023/11/11 01:13:04;;;;;;;32.63;13.30;;;;;;;6.52;100.00;99503.81;7396439;19;20407;-49
2023/11/11 01:15:34;;;;;;;34.13;14.73;;;;;;;6.57;100.00;99499.72;7371001;19;20474;-51
2023/11/11 01:18:03;;;;;;;10.70;6.20;;;;;;;6.53;100.00;99481.59;7394148;19;20415;-46
2023/11/11 01:20:33;;;;;;;14.90;7.50;;;;;;;6.59;100.00;99480.16;7371546;19;20497;-47
2023/11/11 01:23:03;;;;;;;10.43;6.50;;;;;;;6.56;100.00;99466.34;7394057;19;20782;-45
2023/11/11 01:25:35;;;;;;;32.33;13.83;;;;;;;6.55;100.00;99455.22;7371708;19;20784;-47
2023/11/11 01:28:06;;;;;;;14.10;6.70;;;;;;;6.55;100.00;99444.97;7393608;19;20407;-46
2023/11/11 01:30:35;;;;;;;26.23;10.67;;;;;;;6.58;100.00;99432.28;7369952;19;20470;-46
2023/11/11 01:33:06;;;;;;;28.00;13.10;;;;;;;6.60;100.00;99433.19;7393960;19;20419;-46
2023/11/11 01:35:36;;;;;;;21.70;9.30;;;;;;;6.58;100.00;99422.03;7371438;19;20399;-46
2023/11/11 01:38:05;;;;;;;23.83;10.40;;;;;;;6.70;100.00;99424.16;7395339;19;20742;-50
2023/11/11 01:40:38;;;;;;;20.73;10.03;;;;;;;6.59;100.00;99403.28;7370074;19;20388;-48
2023/11/11 01:43:10;;;;;;;11.90;5.73;;;;;;;6.59;100.00;99393.03;7393431;19;21011;-49
2023/11/11 01:45:43;;;;;;;17.03;9.20;;;;;;;6.65;100.00;99388.94;7370338;19;21033;-50
2023/11/11 01:48:14;;;;;;;12.87;6.57;;;;;;;6.64;100.00;99379.47;7391118;19;20407;-51
2023/11/11 01:50:44;;;;;;;21.90;8.00;;;;;;;6.52;100.00;99369.66;7371506;19;20397;-47
2023/11/11 01:53:14;;;;;;;13.33;7.43;;;;;;;6.45;100.00;99359.19;7393859;19;20745;-48
2023/11/11 01:55:47;;;;;;;35.27;13.10;;;;;;;6.58;100.00;99350.28;7371762;19;20396;-48
2023/11/11 01:58:17;;;;;;;16.57;8.00;;;;;;;6.49;100.00;99337.13;7389608;19;21137;-47
2023/11/11 02:00:47;;;;;;;38.43;17.63;;;;;;;6.57;100.00;99335.69;7369475;19;20870;-47
2023/11/11 02:03:16;;;;;;;17.53;8.67;;;;;;;6.51;100.00;99320.09;7391970;19;20779;-52
2023/11/11 02:05:46;;;;;;;46.30;16.33;;;;;;;6.62;100.00;99308.53;7369337;19;20427;-46
2023/11/11 02:08:16;;;;;;;14.37;8.20;;;;;;;6.56;100.00;99307.47;7385135;19;20404;-48
2023/11/11 02:10:48;;;;;;;15.63;8.87;;;;;;;6.50;100.00;99297.84;7369485;19;20831;-46
2023/11/11 02:13:18;;;;;;;13.97;8.33;;;;;;;6.60;100.00;99288.78;7392892;19;20940;-46
2023/11/11 02:15:48;;;;;;;17.40;8.90;;;;;;;6.57;100.00;99287.00;7370326;19;21139;-47
2023/11/11 02:18:18;;;;;;;20.30;8.60;;;;;;;6.64;100.00;99280.41;7390854;19;21062;-49
2023/11/11 02:20:49;;;;;;;22.90;11.60;;;;;;;6.83;100.00;99291.28;7370333;19;20479;-47
2023/11/11 02:23:19;;;;;;;40.10;17.87;;;;;;;6.98;100.00;99302.03;7390418;19;20405;-51
2023/11/11 02:25:51;;;;;;;19.40;11.20;;;;;;;6.99;100.00;99303.75;7369704;19;20414;-48
2023/11/11 02:28:21;;;;;;;22.63;11.47;;;;;;;6.88;100.00;99300.84;7390879;19;20418;-47
2023/11/11 02:30:51;;;;;;;20.23;9.00;;;;;;;6.93;100.00;99292.44;7369596;19;20407;-50
2023/11/11 02:33:20;;;;;;;24.10;12.17;;;;;;;6.91;100.00;99278.72;7391573;19;20471;-48
2023/11/11 02:35:50;;;;;;;28.93;13.83;;;;;;;7.01;100.00;99276.50;7369581;19;20415;-47
2023/11/11 02:38:20;;;;;;;18.63;9.67;;;;;;;6.91;100.00;99271.03;7391082;19;20407;-48
2023/11/11 02:40:53;;;;;;;17.50;9.53;;;;;;;6.89;100.00;99276.94;7368743;19;20419;-46
2023/11/11 02:43:22;;;;;;;51.80;18.33;;;;;;;6.87;100.00;99277.75;7390637;19;20411;-48
2023/11/11 02:45:52;;;;;;;16.13;9.07;;;;;;;6.82;100.00;99280.13;7370592;19;20407;-49
2023/11/11 02:48:22;;;;;;;12.50;7.67;;;;;;;6.94;100.00;99283.94;7392293;19;20438;-48
2023/11/11 02:50:51;;;;;;;22.60;8.83;;;;;;;6.95;100.00;99288.22;7369097;19;20414;-47
2023/11/11 02:53:21;;;;;;;20.07;9.00;;;;;;;6.78;100.00;99277.44;7392394;19;20423;-47
2023/11/11 02:55:54;;;;;;;19.63;8.50;;;;;;;6.68;100.00;99283.94;7368670;19;20402;-46
2023/11/11 02:58:25;;;;;;;46.23;18.70;;;;;;;6.72;100.00;99289.22;7390227;19;20836;-48
2023/11/11 03:00:55;;;;;;;19.10;7.50;;;;;;;6.69;100.00;99299.38;7368342;19;20395;-47
2023/11/11 03:03:25;;;;;;;16.17;7.90;;;;;;;6.66;100.00;99298.41;7390440;19;20396;-47
2023/11/11 03:05:55;;;;;;;24.03;11.47;;;;;;;6.71;100.00;99314.78;7367351;19;20395;-46
2023/11/11 03:08:24;;;;;;;14.90;8.17;;;;;;;6.70;100.00;99316.50;7388980;19;20403;-49
2023/11/11 03:10:57;;;;;;;21.70;8.80;;;;;;;6.69;100.00;99313.88;7371230;19;20481;-47
2023/11/11 03:13:26;;;;;;;14.03;8.30;;;;;;;6.70;100.00;99321.63;7399695;19;20395;-46
2023/11/11 03:15:56;;;;;;;21.43;9.07;;;;;;;6.75;100.00;99322.66;7374075;19;20399;-47
2023/11/11 03:18:26;;;;;;;21.60;8.07;;;;;;;6.72;100.00;99325.09;7398828;19;20407;-46
2023/11/11 03:20:57;;;;;;;24.50;11.70;;;;;;;6.74;100.00;99322.59;7374377;19;20398;-47
2023/11/11 03:23:26;;;;;;;21.80;10.53;;;;;;;6.72;100.00;99321.69;7396476;19;21022;-49
2023/11/11 03:25:59;;;;;;;15.50;7.97;;;;;;;6.69;100.00;99313.88;7374712;19;20490;-47
2023/11/11 03:28:28;;;;;;;17.30;8.67;;;;;;;6.74;100.00;99320.91;7398221;19;20459;-51
2023/11/11 03:30:58;;;;;;;15.67;8.07;;;;;;;6.69;100.00;99321.56;7374150;19;20410;-48
2023/11/11 03:33:28;;;;;;;20.93;8.70;;;;;;;6.64;100.00;99315.41;7396669;19;20776;-47
2023/11/11 03:35:57;;;;;;;16.50;7.93;;;;;;;6.59;100.00;99317.81;7374696;19;20466;-47
2023/11/11 03:38:28;;;;;;;19.43;7.60;;;;;;;6.59;100.00;99322.94;7395255;19;20962;-48
2023/11/11 03:41:00;;;;;;;25.80;11.53;;;;;;;6.62;100.00;99334.16;7373437;19;20955;-50
2023/11/11 03:43:30;;;;;;;17.27;8.23;;;;;;;6.66;100.00;99344.53;7396103;19;20422;-49
2023/11/11 03:46:00;;;;;;;14.77;7.93;;;;;;;6.59;100.00;99341.75;7375707;19;20402;-52
2023/11/11 03:48:30;;;;;;;19.77;9.03;;;;;;;6.64;100.00;99356.41;7395688;19;21257;-50
2023/11/11 03:51:00;;;;;;;17.07;8.10;;;;;;;6.64;100.00;99358.97;7374127;19;20396;-46
2023/11/11 03:53:29;;;;;;;16.43;8.30;;;;;;;6.64;100.00;99362.41;7396050;19;20399;-53
2023/11/11 03:56:05;;;;;;;19.37;8.97;;;;;;;6.64;100.00;99367.53;7374123;19;20946;-47
2023/11/11 03:58:35;;;;;;;17.87;8.83;;;;;;;6.54;100.00;99376.59;7395927;19;20403;-47
2023/11/11 04:01:06;;;;;;;20.10;10.00;;;;;;;6.58;100.00;99393.84;7373661;19;20439;-52
2023/11/11 04:03:39;;;;;;;28.93;10.50;;;;;;;6.62;100.00;99400.81;7396260;19;20474;-49
2023/11/11 04:06:09;;;;;;;27.83;11.93;;;;;;;6.66;100.00;99422.28;7372440;19;20431;-47
2023/11/11 04:08:39;;;;;;;15.27;8.10;;;;;;;6.59;100.00;99426.34;7398443;19;20403;-47
2023/11/11 04:11:14;;;;;;;12.40;7.60;;;;;;;6.65;100.00;99435.06;7373743;19;20427;-50
2023/11/11 04:13:45;;;;;;;15.07;8.27;;;;;;;6.64;100.00;99438.41;7395857;19;20486;-47
2023/11/11 04:16:15;;;;;;;16.53;7.57;;;;;;;6.64;100.00;99447.00;7373262;19;20502;-48
2023/11/11 04:18:45;;;;;;;20.70;9.00;;;;;;;6.66;100.00;99457.31;7395565;19;20479;-51
2023/11/11 04:21:14;;;;;;;17.80;8.03;;;;;;;6.63;100.00;99473.44;7372050;19;20419;-50
2023/11/11 04:23:44;;;;;;;17.03;7.93;;;;;;;6.56;100.00;99474.03;7395655;19;20416;-52
2023/11/11 04:26:16;;;;;;;15.80;8.30;;;;;;;6.55;100.00;99482.53;7372905;19;20415;-49
2023/11/11 04:28:46;;;;;;;26.47;9.63;;;;;;;6.55;100.00;99500.47;7395125;19;20479;-50
2023/11/11 04:31:17;;;;;;;14.13;7.87;;;;;;;6.53;100.00;99507.22;7371547;19;20423;-48
2023/11/11 04:33:47;;;;;;;16.07;8.70;;;;;;;6.51;100.00;99514.00;7397357;19;20427;-48
2023/11/11 04:36:17;;;;;;;14.50;8.10;;;;;;;6.51;100.00;99519.97;7371509;19;20419;-47
2023/11/11 04:38:47;;;;;;;21.43;10.30;;;;;;;6.42;100.00;99533.31;7394880;19;20416;-50
2023/11/11 04:41:19;;;;;;;17.13;8.13;;;;;;;6.42;100.00;99542.69;7371830;19;20424;-52
2023/11/11 04:43:48;;;;;;;17.73;8.03;;;;;;;6.44;100.00;99551.31;7394955;19;21276;-47
2023/11/11 04:46:18;;;;;;;18.60;9.23;;;;;;;6.50;100.00;99568.63;7371518;19;20423;-49
2023/11/11 04:48:48;;;;;;;17.40;8.77;;;;;;;6.46;100.00;99581.31;7397036;19;20759;-47
2023/11/11 04:51:18;;;;;;;15.20;8.23;;;;;;;6.49;100.00;99583.13;7371307;19;20978;-47
2023/11/11 04:53:47;;;;;;;21.00;10.80;;;;;;;6.57;100.00;99586.84;7396259;19;20443;-50
2023/11/11 04:56:20;;;;;;;21.30;10.10;;;;;;;6.60;100.00;99592.09;7372247;19;20495;-46
2023/11/11 04:58:49;;;;;;;16.40;8.23;;;;;;;6.62;100.00;99590.47;7394288;19;20428;-49
2023/11/11 05:01:19;;;;;;;13.47;7.70;;;;;;;6.66;100.00;99595.72;7370434;19;20522;-47
2023/11/11 05:03:50;;;;;;;21.33;9.47;;;;;;;6.66;100.00;99600.84;7394802;19;20427;-47
2023/11/11 05:06:19;;;;;;;18.30;7.77;;;;;;;6.67;100.00;99603.47;7370218;19;20447;-47
2023/11/11 05:08:49;;;;;;;17.60;8.27;;;;;;;6.66;100.00;99601.72;7394602;19;20517;-49
2023/11/11 05:11:21;;;;;;;15.37;7.20;;;;;;;6.65;100.00;99599.97;7367486;19;20423;-48
2023/11/11 05:13:51;;;;;;;21.17;9.77;;;;;;;6.74;100.00;99604.59;7394061;19;20435;-48
2023/11/11 05:16:38;;;;;;;19.47;8.00;;;;;;;6.77;100.00;99602.13;7370162;19;20423;-50
2023/11/11 05:19:09;;;;;;;17.87;8.77;;;;;;;6.78;100.00;99595.31;7394772;19;20414;-46
2023/11/11 05:21:39;;;;;;;14.23;7.40;;;;;;;6.74;100.00;99589.19;7371689;19;20510;-47
2023/11/11 05:24:10;;;;;;;20.57;9.90;;;;;;;6.74;100.00;99586.63;7395252;19;20435;-51
2023/11/11 05:26:43;;;;;;;29.03;12.27;;;;;;;6.70;100.00;99592.44;7371389;19;20430;-47
2023/11/11 05:29:13;;;;;;;17.50;8.63;;;;;;;6.65;100.00;99588.88;7393090;19;20416;-47
2023/11/11 05:31:42;;;;;;;18.80;8.20;;;;;;;6.67;100.00;99593.22;7370847;19;20423;-49
2023/11/11 05:34:12;;;;;;;16.60;7.70;;;;;;;6.66;100.00;99603.41;7391123;19;20466;-49
2023/11/11 05:36:44;;;;;;;21.97;10.40;;;;;;;6.65;100.00;99606.81;7370813;19;20831;-47
2023/11/11 05:39:16;;;;;;;17.07;8.43;;;;;;;6.71;100.00;99615.59;7393076;19;20399;-47
2023/11/11 05:41:49;;;;;;;16.37;9.50;;;;;;;6.71;100.00;99615.59;7371385;19;20808;-53
2023/11/11 05:44:19;;;;;;;17.20;8.20;;;;;;;6.67;100.00;99607.72;7393142;19;20451;-49
2023/11/11 05:46:48;;;;;;;19.53;8.30;;;;;;;6.67;100.00;99617.97;7370406;19;20514;-47
2023/11/11 05:49:18;;;;;;;22.80;9.87;;;;;;;6.67;100.00;99633.38;7392908;19;20403;-51
2023/11/11 05:51:48;;;;;;;20.43;8.30;;;;;;;6.57;100.00;99637.25;7370815;19;20427;-50
2023/11/11 05:54:19;;;;;;;16.30;8.17;;;;;;;6.57;100.00;99640.66;7393026;19;20518;-50
2023/11/11 05:56:51;;;;;;;21.77;7.67;;;;;;;6.54;100.00;99642.25;7370648;19;20451;-52
2023/11/11 05:59:20;;;;;;;16.03;7.10;;;;;;;6.52;100.00;99634.50;7394667;19;20421;-48
2023/11/11 06:01:51;;;;;;;23.60;13.00;;;;;;;6.58;100.00;99634.75;7370295;19;20463;-52
2023/11/11 06:04:20;;;;;;;22.00;9.97;;;;;;;6.47;100.00;99628.31;7393257;19;20439;-50
2023/11/11 06:06:51;;;;;;;20.47;9.57;;;;;;;6.43;100.00;99626.44;7368362;19;21043;-54
2023/11/11 06:09:23;;;;;;;16.30;8.70;;;;;;;6.38;100.00;99615.13;7391858;19;20479;-49
2023/11/11 06:11:58;;;;;;;19.33;7.43;;;;;;;6.36;100.00;99622.75;7369577;19;20779;-49
2023/11/11 06:14:29;;;;;;;24.17;11.13;;;;;;;6.30;100.00;99622.53;7394563;19;20446;-48
2023/11/11 06:16:58;;;;;;;15.33;6.93;;;;;;;6.28;100.00;99630.13;7370011;19;20506;-50
2023/11/11 06:19:28;;;;;;;16.83;8.90;;;;;;;6.27;100.00;99640.31;7391889;19;20768;-47
2023/11/11 06:21:58;;;;;;;16.23;9.07;;;;;;;6.23;100.00;99641.88;7370386;19;20430;-49
2023/11/11 06:24:27;;;;;;;22.43;10.37;;;;;;;6.28;100.00;99668.56;7389472;19;20967;-48
2023/11/11 06:26:59;;;;;;;15.30;8.17;;;;;;;6.21;100.00;99666.56;7369318;19;20423;-48
2023/11/11 06:29:29;;;;;;;16.60;8.00;;;;;;;6.24;100.00;99679.47;7392274;19;20776;-49
2023/11/11 06:31:59;;;;;;;24.93;7.97;;;;;;;6.22;100.00;99683.69;7364985;19;20439;-47
2023/11/11 06:34:29;;;;;;;17.73;7.90;;;;;;;6.23;100.00;99690.53;7392963;19;21094;-47
2023/11/11 06:36:58;;;;;;;17.30;7.50;;;;;;;6.30;100.00;99701.94;7368638;19;20514;-52
2023/11/11 06:39:30;;;;;;;15.43;7.40;;;;;;;6.25;100.00;99700.88;7393900;19;20400;-47
2023/11/11 06:42:02;;;;;;;19.73;7.47;;;;;;;6.24;100.00;99714.50;7369595;19;20499;-51
2023/11/11 06:44:32;;;;;;;19.80;8.60;;;;;;;6.56;100.00;99738.88;7394582;19;20455;-50
2023/11/11 06:47:01;;;;;;;31.40;15.83;;;;;;;7.07;100.00;99787.94;7375685;19;20434;-52
2023/11/11 06:49:31;;;;;;;24.00;11.70;;;;;;;6.82;100.00;99772.41;7398291;19;20410;-50
2023/11/11 06:52:00;;;;;;;15.90;9.27;;;;;;;6.73;100.00;99752.38;7376237;19;20441;-47
2023/11/11 06:54:30;;;;;;;17.80;8.33;;;;;;;6.62;100.00;99744.25;7398387;19;20452;-47
2023/11/11 06:57:03;;;;;;;16.53;7.73;;;;;;;6.56;100.00;99720.94;7375193;19;20434;-50
2023/11/11 06:59:33;;;;;;;15.17;8.10;;;;;;;6.48;100.00;99707.81;7398147;19;20428;-52
2023/11/11 07:02:02;;;;;;;16.27;8.50;;;;;;;6.38;100.00;99694.53;7376021;19;20433;-47
2023/11/11 07:04:32;;;;;;;17.63;9.03;;;;;;;6.45;100.00;99694.00;7396098;19;20448;-47
2023/11/11 07:07:02;;;;;;;16.50;7.77;;;;;;;6.39;100.00;99686.94;7368779;19;20856;-49
2023/11/11 07:09:32;;;;;;;14.47;8.50;;;;;;;6.42;100.00;99683.63;7397506;19;20416;-53
2023/11/11 07:12:04;;;;;;;17.87;8.47;;;;;;;6.42;100.00;99692.16;7375513;19;20831;-50
2023/11/11 07:14:34;;;;;;;16.57;6.83;;;;;;;6.43;100.00;99690.50;7397833;19;21015;-49
2023/11/11 07:17:03;;;;;;;14.90;7.30;;;;;;;6.43;100.00;99693.06;7374863;19;20423;-51
2023/11/11 07:19:35;;;;;;;17.00;7.90;;;;;;;6.53;100.00;99702.00;7397064;19;20410;-52
2023/11/11 07:22:05;;;;;;;22.33;10.70;;;;;;;6.64;100.00;99710.13;7375515;19;20502;-51
2023/11/11 07:24:37;;;;;;;23.43;8.77;;;;;;;6.53;100.00;99697.75;7398203;19;20456;-52
2023/11/11 07:27:10;;;;;;;13.27;7.27;;;;;;;6.46;100.00;99690.63;7375657;19;20427;-50
2023/11/11 07:29:39;;;;;;;18.77;7.60;;;;;;;6.45;100.00;99684.63;7398060;19;20443;-51
2023/11/11 07:32:11;;;;;;;18.67;8.23;;;;;;;6.43;100.00;99690.50;7372455;19;20411;-49
2023/11/11 07:34:43;;;;;;;51.00;19.33;;;;;;;6.45;100.00;99706.81;7397809;19;20800;-47
2023/11/11 07:37:14;;;;;;;22.73;10.37;;;;;;;6.42;100.00;99704.97;7373975;19;20474;-48
2023/11/11 07:39:44;;;;;;;26.20;12.20;;;;;;;6.40;100.00;99695.50;7399510;19;20405;-47
2023/11/11 07:42:16;;;;;;;25.30;11.10;;;;;;;6.44;100.00;99694.81;7375153;19;20427;-50
2023/11/11 07:44:46;;;;;;;25.33;10.03;;;;;;;6.43;100.00;99688.81;7398602;19;20459;-49
2023/11/11 07:47:15;;;;;;;22.00;9.53;;;;;;;6.45;100.00;99689.75;7373849;19;21256;-49
2023/11/11 07:49:46;;;;;;;42.77;16.87;;;;;;;6.43;100.00;99687.94;7396995;19;20420;-50
2023/11/11 07:52:15;;;;;;;51.87;20.70;;;;;;;6.49;100.00;99670.25;7370882;19;20430;-50
2023/11/11 07:54:45;;;;;;;29.20;11.80;;;;;;;6.54;100.00;99661.06;7390439;19;20444;-51
2023/11/11 07:57:17;;;;;;;27.20;11.20;;;;;;;6.47;100.00;99636.00;7365273;19;20423;-47
2023/11/11 08:00:09;;;;;;;26.97;11.93;;;;;;;6.54;100.00;99629.41;7392021;19;20761;-48
2023/11/11 08:02:38;;;;;;;39.30;15.17;;;;;;;6.48;100.00;99614.69;7369328;19;20435;-52
2023/11/11 08:05:09;;;;;;;26.73;11.80;;;;;;;6.57;100.00;99609.91;7377442;19;20979;-51
2023/11/11 08:07:39;;;;;;;28.43;12.03;;;;;;;6.58;100.00;99590.31;7390168;19;20410;-48
2023/11/11 08:10:10;;;;;;;25.87;11.70;;;;;;;6.59;100.00;99589.47;7370625;19;20487;-50
2023/11/11 08:12:43;;;;;;;26.30;11.50;;;;;;;6.52;100.00;99570.44;7393433;19;20404;-49
2023/11/11 08:15:12;;;;;;;32.17;13.67;;;;;;;6.46;100.00;99558.25;7366097;19;20998;-52
2023/11/11 08:17:45;;;;;;;26.43;11.63;;;;;;;6.46;100.00;99560.81;7390908;19;20443;-53
2023/11/11 08:20:16;;;;;;;27.60;11.00;;;;;;;6.47;100.00;99551.44;7367872;19;20937;-52
2023/11/11 08:22:46;;;;;;;22.30;10.90;;;;;;;6.46;100.00;99545.44;7389930;19;20414;-48
2023/11/11 08:25:15;;;;;;;48.20;16.70;;;;;;;6.48;100.00;99553.19;7365398;19;20439;-49
2023/11/11 08:27:50;;;;;;;27.00;11.67;;;;;;;6.51;100.00;99555.00;7388255;19;20399;-52
2023/11/11 08:30:21;;;;;;;23.20;10.43;;;;;;;6.44;100.00;99548.75;7366040;19;20483;-48
2023/11/11 08:32:52;;;;;;;30.90;11.90;;;;;;;6.46;100.00;99550.56;7388952;19;20415;-52
2023/11/11 08:35:21;;;;;;;35.23;12.50;;;;;;;6.47;100.00;99549.75;7367474;19;20527;-48
2023/11/11 08:37:51;;;;;;;29.00;13.27;;;;;;;6.48;100.00;99546.34;7386358;19;20766;-52
2023/11/11 08:40:21;;;;;;;35.73;15.67;;;;;;;6.54;100.00;99549.97;7367908;19;20407;-52
2023/11/11 08:42:54;;;;;;;26.43;12.77;;;;;;;6.53;100.00;99538.88;7387555;19;20411;-50
2023/11/11 08:45:23;;;;;;;33.97;14.70;;;;;;;6.57;100.00;99544.97;7367540;19;20435;-47
2023/11/11 08:47:53;;;;;;;29.03;13.40;;;;;;;6.62;100.00;99536.66;7389694;19;20949;-53
2023/11/11 08:50:23;;;;;;;27.00;11.97;;;;;;;6.67;100.00;99528.25;7368224;19;20428;-51
2023/11/11 08:52:53;;;;;;;30.83;11.50;;;;;;;6.67;100.00;99529.13;7388733;19;20399;-49
2023/11/11 08:55:22;;;;;;;28.13;12.17;;;;;;;6.70;100.00;99534.38;7365619;19;20956;-48
2023/11/11 08:57:55;;;;;;;24.53;11.77;;;;;;;6.67;100.00;99531.69;7388117;19;20403;-50
2023/11/11 09:00:25;;;;;;;24.03;12.07;;;;;;;6.70;100.00;99538.63;7366212;19;20423;-47
2023/11/11 09:02:55;;;;;;;50.73;20.00;;;;;;;6.70;100.00;99534.38;7387772;19;20423;-51
2023/11/11 09:05:26;;;;;;;37.57;15.30;;;;;;;6.71;100.00;99535.25;7364518;19;20518;-50
2023/11/11 09:07:55;;;;;;;27.47;12.43;;;;;;;6.71;100.00;99525.88;7387469;19;20448;-52
2023/11/11 09:10:26;;;;;;;42.73;17.13;;;;;;;6.73;100.00;99519.09;7365520;19;20410;-48
2023/11/11 09:12:58;;;;;;;35.60;13.80;;;;;;;6.82;100.00;99516.00;7386782;19;20479;-51
2023/11/11 09:15:28;;;;;;;27.20;13.43;;;;;;;6.75;100.00;99516.59;7363850;19;20400;-51
2023/11/11 09:17:58;;;;;;;33.37;14.10;;;;;;;6.80;100.00;99504.84;7386207;19;20402;-48
2023/11/11 09:20:29;;;;;;;28.10;14.50;;;;;;;6.89;100.00;99502.59;7364782;19;20980;-48
2023/11/11 09:22:59;;;;;;;40.33;15.87;;;;;;;6.87;100.00;99495.69;7387877;19;20733;-47
2023/11/11 09:25:29;;;;;;;77.93;28.90;;;;;;;6.94;100.00;99501.91;7365049;19;20475;-52
2023/11/11 09:28:02;;;;;;;182.80;61.03;;;;;;;6.98;100.00;99499.50;7387440;19;20407;-50
2023/11/11 09:30:31;;;;;;;31.13;13.13;;;;;;;7.05;100.00;99498.03;7365545;19;20419;-52
2023/11/11 09:33:02;;;;;;;25.50;13.40;;;;;;;7.02;100.00;99492.78;7386256;19;20487;-50
2023/11/11 09:35:31;;;;;;;34.93;15.57;;;;;;;6.98;100.00;99496.06;7364768;19;20494;-51
2023/11/11 09:38:02;;;;;;;47.13;16.17;;;;;;;7.01;100.00;99489.34;7388007;19;20416;-50
2023/11/11 09:40:32;;;;;;;58.73;21.20;;;;;;;7.07;100.00;99490.41;7360617;19;21018;-54
2023/11/11 09:43:04;;;;;;;24.70;11.93;;;;;;;6.99;100.00;99482.44;7386138;19;20487;-49
2023/11/11 09:45:34;;;;;;;45.03;18.67;;;;;;;6.96;100.00;99472.03;7364874;19;20444;-52
2023/11/11 09:48:04;;;;;;;34.53;12.57;;;;;;;7.03;100.00;99466.34;7384745;19;20400;-54
2023/11/11 09:50:35;;;;;;;53.30;20.07;;;;;;;7.01;100.00;99467.94;7365309;19;20407;-49
2023/11/11 09:53:05;;;;;;;33.43;13.50;;;;;;;7.07;100.00;99475.00;7385701;19;20408;-47
2023/11/11 09:55:36;;;;;;;33.63;14.60;;;;;;;7.08;100.00;99462.22;7364193;19;20395;-46
2023/11/11 09:58:09;;;;;;;22.17;11.00;;;;;;;7.14;100.00;99456.44;7386085;19;20418;-54
2023/11/11 10:00:39;;;;;;;27.33;12.37;;;;;;;7.18;100.00;99457.44;7365552;19;20425;-48
2023/11/11 10:03:08;;;;;;;23.23;10.20;;;;;;;7.14;100.00;99457.31;7387893;19;20426;-47
2023/11/11 10:05:38;;;;;;;31.13;13.13;;;;;;;7.09;100.00;99464.00;7361542;19;20447;-52
2023/11/11 10:08:07;;;;;;;51.90;21.00;;;;;;;7.09;100.00;99456.28;7385084;19;20487;-48
2023/11/11 10:10:38;;;;;;;23.77;11.83;;;;;;;7.12;100.00;99456.38;7364724;19;20416;-48
2023/11/11 10:13:10;;;;;;;21.73;10.53;;;;;;;7.05;100.00;99468.94;7387261;19;20404;-48
2023/11/11 10:15:40;;;;;;;24.23;11.50;;;;;;;7.03;100.00;99469.75;7363944;19;20502;-53
2023/11/11 10:18:09;;;;;;;115.47;36.83;;;;;;;7.11;100.00;99471.72;7384819;19;20414;-47
2023/11/11 10:20:39;;;;;;;38.77;15.93;;;;;;;7.12;100.00;99478.59;7361331;19;20850;-55
2023/11/11 10:23:10;;;;;;;26.77;10.87;;;;;;;7.15;100.00;99477.03;7387983;19;20407;-47
2023/11/11 10:25:39;;;;;;;40.07;17.20;;;;;;;7.30;100.00;99475.81;7362230;19;21682;-49
2023/11/11 10:28:15;;;;;;;20.87;10.97;;;;;;;7.29;100.00;99479.19;7384963;19;20411;-47
2023/11/11 10:30:45;;;;;;;30.13;11.17;;;;;;;7.24;100.00;99473.03;7364004;19;20447;-50
2023/11/11 10:33:14;;;;;;;37.47;16.60;;;;;;;7.36;100.00;99483.72;7386160;19;20842;-54
2023/11/11 10:35:44;;;;;;;36.50;16.63;;;;;;;7.15;100.00;99484.72;7362471;19;20456;-47
2023/11/11 10:38:14;;;;;;;26.10;12.03;;;;;;;7.14;100.00;99487.22;7385414;19;20411;-52
2023/11/11 10:40:44;;;;;;;25.80;10.67;;;;;;;7.03;100.00;99487.72;7363052;19;20955;-47
2023/11/11 10:43:17;;;;;;;28.47;12.50;;;;;;;7.00;100.00;99495.31;7385551;19;20400;-50
2023/11/11 10:45:47;;;;;;;19.50;9.77;;;;;;;7.03;100.00;99487.72;7362580;19;20427;-52
2023/11/11 10:48:17;;;;;;;22.77;10.57;;;;;;;7.13;100.00;99496.59;7384188;19;20430;-49
2023/11/11 10:50:47;;;;;;;41.07;17.83;;;;;;;7.20;100.00;99491.69;7364001;19;20415;-49
2023/11/11 10:53:17;;;;;;;73.67;25.50;;;;;;;7.14;100.00;99497.50;7384039;19;20482;-49
2023/11/11 10:55:49;;;;;;;29.47;12.47;;;;;;;7.11;100.00;99495.69;7363195;19;20424;-50
2023/11/11 10:58:21;;;;;;;119.53;41.13;;;;;;;7.18;100.00;99498.47;7385729;19;20439;-51
2023/11/11 11:00:53;;;;;;;17.00;8.80;;;;;;;7.14;100.00;99503.47;7362638;19;20491;-49
2023/11/11 11:03:24;;;;;;;24.30;9.90;;;;;;;7.22;100.00;99505.47;7384202;19;20411;-52
2023/11/11 11:05:58;;;;;;;24.03;10.20;;;;;;;7.15;100.00;99510.38;7361997;19;20495;-47
2023/11/11 11:08:33;;;;;;;28.40;12.53;;;;;;;7.14;100.00;99508.59;7384121;19;20405;-48
2023/11/11 11:11:18;;;;;;;17.40;8.40;;;;;;;7.07;100.00;99516.91;7361458;19;20410;-47
2023/11/11 11:13:52;;;;;;;41.63;17.07;;;;;;;7.05;100.00;99509.97;7385505;19;20854;-47
2023/11/11 11:16:29;;;;;;;18.70;8.73;;;;;;;6.93;100.00;99515.53;7362922;19;20419;-53
2023/11/11 11:19:00;;;;;;;18.70;8.37;;;;;;;6.97;100.00;99515.69;7383228;19;20422;-50
2023/11/11 11:21:30;;;;;;;35.13;15.00;;;;;;;6.89;100.00;99517.97;7362693;19;20446;-46
2023/11/11 11:24:00;;;;;;;111.57;37.90;;;;;;;6.91;100.00;99524.88;7383529;19;20798;-50
2023/11/11 11:26:31;;;;;;;32.27;13.60;;;;;;;6.90;100.00;99521.44;7360961;19;20466;-54
2023/11/11 11:29:15;;;;;;;14.17;7.13;;;;;;;6.85;100.00;99528.06;7383050;19;20407;-46
2023/11/11 11:32:06;;;;;;;13.70;6.50;;;;;;;6.88;100.00;99534.19;7363047;19;20832;-48
2023/11/11 11:34:36;;;;;;;29.13;12.57;;;;;;;6.94;100.00;99540.38;7389353;19;20979;-51
2023/11/11 11:37:06;;;;;;;18.30;8.60;;;;;;;6.96;100.00;99538.72;7369359;19;20514;-48